LTBD

Çıldır Airport

Aydın, Turkey
TAF LTBD 170740Z 1709/1718 08012KT 9999 -SHRA SCT030 BKN100 TEMPO 1715/1718 -TSRA FEW015CB BKN025
Issued Valid From Valid To
Nov-17 @ 07:40 UTC
(2 hours ago)
Nov-17 @ 09:00 UTC
(37 minutes ago)
Nov-17 @ 18:00 UTC
(in 8 hours)
Nov-17 @ 09:00 to Nov-17 @ 18:00
TAF LTBD 170740Z 1709/1718 08012KT 9999 -SHRA SCT030 BKN100
Wind Visibility Clouds Conditions
80° at 12 knots 10,000+ meters
  • Scattered at 3,000' AGL
  • Broken at 10,000' AGL
  • Light Rain
Temporary Nov-17 @ 15:00 to Nov-17 @ 18:00
TEMPO 1715/1718 -TSRA FEW015CB BKN025
Clouds Conditions
  • Few at 1,500' AGL
  • Broken at 2,500' AGL
  • Light Thunderstorm
  • Light Rain
TAF LTBD 170740Z 1709/1718 08012KT 9999 -SHRA SCT030 BKN100 TEMPO 1715/1718 -TSRA FEW015CB BKN025
Issued Nov-17 @ 07:40 UTC
(2 hours ago)
Valid From Nov-17 @ 09:00 UTC
(37 minutes ago)
Valid To Nov-17 @ 18:00 UTC
(in 8 hours)
Nov-17 @ 09:00 - Nov-17 @ 18:00
Wind Visibility
80° at 12 knots 10,000+ meters
Clouds
  • Scattered at 3,000' AGL
  • Broken at 10,000' AGL
Conditions
  • Light Rain
Temporary Nov-17 @ 15:00 - Nov-17 @ 18:00
Clouds
  • Few at 1,500' AGL
  • Broken at 2,500' AGL
Conditions
  • Light Thunderstorm
  • Light Rain